Time;durP1;ratioP1;P1;durP2;ratioP2;P2;SDS_P1;SDS_P2;PMS_P1;PMS_P2;Temp;Humidity;BMP_temperature;BMP_pressure;BME280_temperature;BME280_humidity;BME280_pressure;Samples;Min_cycle;Max_cycle;Signal;HPM_P1;HPM_P2
2022/03/08 00:01:17;;;;;;;14.00;9.00;;;2.40;60.40;;;;;;5010849;28;25063;-78
2022/03/08 00:03:42;;;;;;;14.50;9.82;;;2.50;60.30;;;;;;4988731;28;25049;-74
2022/03/08 00:06:08;;;;;;;13.00;9.05;;;2.40;60.20;;;;;;5012150;28;25089;-74
2022/03/08 00:08:34;;;;;;;15.02;8.63;;;2.40;60.30;;;;;;5010270;28;25192;-73
2022/03/08 00:11:00;;;;;;;12.15;9.55;;;2.40;60.50;;;;;;4996886;28;25074;-74
2022/03/08 00:13:25;;;;;;;13.35;9.02;;;2.50;60.20;;;;;;4995945;28;25076;-74
2022/03/08 00:15:51;;;;;;;13.88;8.25;;;2.50;60.20;;;;;;5008632;28;25093;-73
2022/03/08 00:18:17;;;;;;;14.52;9.45;;;2.50;60.60;;;;;;5008736;28;25106;-74
2022/03/08 00:20:43;;;;;;;11.40;8.80;;;2.40;60.80;;;;;;5009308;28;25072;-73
2022/03/08 00:23:08;;;;;;;12.55;8.15;;;2.40;60.80;;;;;;5009105;28;25142;-73
2022/03/08 00:25:35;;;;;;;14.45;8.63;;;2.40;59.40;;;;;;4999945;28;25074;-73
2022/03/08 00:28:01;;;;;;;12.15;7.90;;;2.40;59.00;;;;;;4989114;28;25095;-73
2022/03/08 00:30:27;;;;;;;11.35;7.68;;;2.40;57.90;;;;;;5001489;28;25092;-73
2022/03/08 00:32:53;;;;;;;12.30;8.25;;;2.40;57.90;;;;;;5017188;28;25061;-73
2022/03/08 00:35:20;;;;;;;11.35;7.85;;;2.40;57.30;;;;;;5014390;28;25068;-73
2022/03/08 00:37:48;;;;;;;11.48;8.10;;;2.40;57.20;;;;;;5014759;28;25078;-73
2022/03/08 00:40:14;;;;;;;10.30;7.43;;;2.40;57.60;;;;;;5018742;28;25081;-74
2022/03/08 00:42:40;;;;;;;9.32;7.72;;;2.30;57.30;;;;;;5016695;28;25161;-73
2022/03/08 00:45:07;;;;;;;10.23;7.28;;;2.40;57.20;;;;;;5012364;28;25080;-74
2022/03/08 00:47:34;;;;;;;10.85;7.95;;;2.40;57.30;;;;;;5011585;28;25087;-74
2022/03/08 00:50:01;;;;;;;9.35;7.60;;;2.40;56.90;;;;;;5000769;28;25112;-73
2022/03/08 00:52:26;;;;;;;15.05;7.88;;;2.40;57.10;;;;;;4992895;28;25095;-74
2022/03/08 00:54:52;;;;;;;10.88;7.35;;;2.30;57.40;;;;;;5010156;28;25142;-73
2022/03/08 00:57:17;;;;;;;11.73;7.90;;;2.30;57.60;;;;;;5016710;28;25049;-73
2022/03/08 00:59:43;;;;;;;9.02;7.07;;;2.30;58.00;;;;;;5028914;28;25074;-77
2022/03/08 01:02:08;;;;;;;10.65;7.47;;;2.30;58.10;;;;;;5023992;28;25078;-74
2022/03/08 01:04:34;;;;;;;11.77;7.70;;;2.30;58.10;;;;;;4996301;28;25061;-72
2022/03/08 01:07:00;;;;;;;10.35;7.97;;;2.30;57.70;;;;;;5011266;28;25059;-73
2022/03/08 01:09:25;;;;;;;12.60;8.20;;;2.30;57.60;;;;;;5011764;28;25062;-74
2022/03/08 01:11:51;;;;;;;16.38;8.02;;;2.20;57.40;;;;;;4993940;28;25097;-73
2022/03/08 01:14:16;;;;;;;9.98;7.30;;;2.20;56.90;;;;;;5011576;28;25077;-74
2022/03/08 01:16:42;;;;;;;10.30;8.13;;;2.20;56.50;;;;;;5013129;28;25051;-73
2022/03/08 01:19:08;;;;;;;10.43;7.63;;;2.20;56.40;;;;;;5013094;28;25058;-73
2022/03/08 01:21:37;;;;;;;12.93;7.57;;;2.10;56.30;;;;;;4999807;28;25101;-73
2022/03/08 01:24:04;;;;;;;8.93;7.50;;;2.10;56.80;;;;;;5021444;28;25158;-72
2022/03/08 01:26:30;;;;;;;11.68;8.10;;;2.00;57.10;;;;;;5020163;28;25064;-72
2022/03/08 01:28:56;;;;;;;13.07;7.72;;;2.00;57.60;;;;;;5018805;28;25062;-73
2022/03/08 01:31:22;;;;;;;12.48;7.13;;;2.00;57.60;;;;;;5017133;28;25078;-73
2022/03/08 01:33:49;;;;;;;12.40;7.75;;;2.00;58.20;;;;;;5012207;28;25141;-72
2022/03/08 01:36:16;;;;;;;11.60;6.78;;;1.90;57.80;;;;;;5011769;28;25064;-74
2022/03/08 01:38:42;;;;;;;8.43;6.55;;;1.90;57.60;;;;;;5006278;28;25052;-72
2022/03/08 01:41:08;;;;;;;12.63;7.03;;;1.90;57.40;;;;;;5006752;28;25073;-74
2022/03/08 01:43:34;;;;;;;9.65;7.32;;;1.90;57.40;;;;;;5009850;28;25089;-73
2022/03/08 01:45:59;;;;;;;14.70;7.65;;;1.90;57.70;;;;;;5011230;28;25073;-73
2022/03/08 01:48:25;;;;;;;13.90;7.25;;;1.90;58.10;;;;;;5010797;28;25075;-74
2022/03/08 01:50:51;;;;;;;11.27;7.60;;;1.90;58.30;;;;;;5011465;28;25069;-74
2022/03/08 01:53:16;;;;;;;9.90;7.30;;;1.80;58.50;;;;;;5010539;28;25061;-74
2022/03/08 01:55:42;;;;;;;9.77;7.53;;;1.90;58.50;;;;;;5011101;28;25115;-74
2022/03/08 01:58:08;;;;;;;9.43;7.07;;;1.80;58.30;;;;;;5011186;28;25074;-74
2022/03/08 02:00:34;;;;;;;9.98;7.78;;;1.90;57.90;;;;;;5011090;28;25053;-74
2022/03/08 02:02:59;;;;;;;10.80;7.32;;;1.90;57.80;;;;;;5012173;28;25070;-74
2022/03/08 02:05:26;;;;;;;10.02;7.18;;;1.90;57.50;;;;;;5011166;28;25056;-74
2022/03/08 02:07:52;;;;;;;11.43;7.35;;;1.90;57.10;;;;;;5011129;28;25056;-74
2022/03/08 02:10:18;;;;;;;10.40;7.03;;;1.90;56.70;;;;;;4998545;28;25067;-74
2022/03/08 02:12:43;;;;;;;9.93;7.72;;;1.90;56.00;;;;;;5029614;28;25158;-74
2022/03/08 02:15:21;;;;;;;8.63;6.75;;;1.80;55.70;;;;;;5020683;28;25076;-73
2022/03/08 02:17:47;;;;;;;11.90;6.90;;;1.80;56.00;;;;;;4993153;28;25070;-74
2022/03/08 02:20:14;;;;;;;14.02;7.22;;;1.70;56.20;;;;;;5009617;28;25150;-74
2022/03/08 02:22:44;;;;;;;9.05;6.95;;;1.70;56.30;;;;;;5010704;28;25086;-72
2022/03/08 02:25:10;;;;;;;15.13;7.25;;;1.60;56.50;;;;;;5010078;28;25177;-73
2022/03/08 02:27:42;;;;;;;10.13;7.65;;;1.60;56.90;;;;;;5009446;28;25059;-74
2022/03/08 02:30:09;;;;;;;11.40;7.25;;;1.60;56.70;;;;;;5009986;28;25075;-74
2022/03/08 02:32:35;;;;;;;12.52;7.28;;;1.50;56.90;;;;;;5009941;28;25073;-73
2022/03/08 02:35:15;;;;;;;8.98;6.30;;;1.50;56.90;;;;;;5010961;28;25123;-73
2022/03/08 02:37:47;;;;;;;10.40;7.70;;;1.50;56.90;;;;;;4995152;28;25167;-73
2022/03/08 02:40:15;;;;;;;11.20;7.57;;;1.50;56.80;;;;;;5010078;28;25058;-73
2022/03/08 02:42:41;;;;;;;10.18;7.53;;;1.50;56.80;;;;;;4991085;28;25059;-73
2022/03/08 02:45:09;;;;;;;16.25;7.20;;;1.50;56.60;;;;;;4996998;28;25110;-74
2022/03/08 02:47:35;;;;;;;10.43;7.43;;;1.40;56.90;;;;;;4991851;28;25135;-73
2022/03/08 02:50:01;;;;;;;11.13;7.07;;;1.40;56.80;;;;;;5008835;28;25145;-72
2022/03/08 02:52:26;;;;;;;11.30;7.38;;;1.40;56.60;;;;;;5014688;28;25075;-72
2022/03/08 02:54:52;;;;;;;14.15;7.80;;;1.40;56.50;;;;;;5012882;28;25083;-74
2022/03/08 02:57:18;;;;;;;11.65;7.43;;;1.40;56.60;;;;;;5010051;28;25057;-73
2022/03/08 02:59:45;;;;;;;10.57;6.82;;;1.40;56.40;;;;;;5010347;28;25128;-73
2022/03/08 03:02:10;;;;;;;13.30;7.55;;;1.40;56.70;;;;;;5010928;28;25060;-73
2022/03/08 03:04:36;;;;;;;10.27;7.63;;;1.40;56.70;;;;;;4992213;28;25053;-74
2022/03/08 03:07:02;;;;;;;11.13;7.75;;;1.40;56.20;;;;;;5010097;28;25068;-74
2022/03/08 03:09:27;;;;;;;8.63;6.82;;;1.40;56.20;;;;;;5010427;28;25223;-75
2022/03/08 03:11:53;;;;;;;8.35;6.78;;;1.40;55.90;;;;;;5011346;28;25075;-74
2022/03/08 03:14:18;;;;;;;9.10;6.47;;;1.40;55.80;;;;;;5004740;28;25057;-74
2022/03/08 03:16:44;;;;;;;9.00;6.70;;;1.40;55.80;;;;;;5009832;28;25054;-74
2022/03/08 03:19:09;;;;;;;11.90;7.53;;;1.40;55.60;;;;;;5010807;28;25052;-74
2022/03/08 03:21:35;;;;;;;9.18;7.20;;;1.40;55.90;;;;;;5009967;28;25055;-74
2022/03/08 03:24:01;;;;;;;9.70;7.57;;;1.30;55.70;;;;;;5005388;28;25075;-73
2022/03/08 03:26:26;;;;;;;8.73;7.07;;;1.30;55.70;;;;;;4994347;28;25094;-74
2022/03/08 03:28:52;;;;;;;11.98;6.95;;;1.30;55.90;;;;;;5009602;28;25077;-74
2022/03/08 03:31:17;;;;;;;10.40;7.15;;;1.30;56.10;;;;;;5009026;28;25066;-74
2022/03/08 03:33:43;;;;;;;11.10;7.40;;;1.30;56.20;;;;;;4992913;28;25071;-73
2022/03/08 03:36:09;;;;;;;10.57;7.43;;;1.30;56.30;;;;;;5006773;28;25072;-75
2022/03/08 03:38:35;;;;;;;12.38;8.38;;;1.30;56.30;;;;;;5010214;28;25065;-74
2022/03/08 03:41:00;;;;;;;12.85;8.00;;;1.20;56.40;;;;;;5009922;28;25134;-74
2022/03/08 03:43:26;;;;;;;9.35;7.53;;;1.20;56.40;;;;;;4991499;28;25140;-75
2022/03/08 03:45:52;;;;;;;11.30;7.32;;;1.20;56.50;;;;;;5009825;28;25075;-74
2022/03/08 03:48:17;;;;;;;12.32;8.32;;;1.20;56.70;;;;;;5009960;28;25120;-74
2022/03/08 03:50:43;;;;;;;8.50;6.95;;;1.20;57.40;;;;;;5010030;28;25059;-74
2022/03/08 03:53:09;;;;;;;12.30;7.93;;;1.10;57.20;;;;;;5009130;28;25078;-74
2022/03/08 03:55:34;;;;;;;16.17;7.97;;;1.10;57.50;;;;;;5010076;28;25062;-74
2022/03/08 03:58:00;;;;;;;11.90;7.85;;;1.10;57.60;;;;;;5009450;28;25068;-73
2022/03/08 04:00:27;;;;;;;11.95;7.68;;;1.10;57.70;;;;;;5009082;28;25065;-74
2022/03/08 04:02:52;;;;;;;14.82;8.15;;;1.10;57.50;;;;;;5008867;28;25079;-73
2022/03/08 04:05:18;;;;;;;10.52;7.50;;;1.00;57.70;;;;;;4990466;28;25091;-74
2022/03/08 04:07:44;;;;;;;10.90;7.78;;;1.00;57.70;;;;;;4991593;28;25091;-73
2022/03/08 04:10:11;;;;;;;12.23;7.97;;;1.00;58.00;;;;;;5010505;28;25120;-73
2022/03/08 04:12:37;;;;;;;12.75;7.80;;;1.00;57.90;;;;;;5025898;28;25079;-74
2022/03/08 04:15:04;;;;;;;13.77;7.88;;;1.00;57.90;;;;;;5027394;28;25086;-74
2022/03/08 04:17:29;;;;;;;16.02;8.27;;;1.00;58.60;;;;;;5013079;28;25074;-74
2022/03/08 04:19:55;;;;;;;11.38;8.52;;;0.90;58.10;;;;;;5011255;28;25074;-73
2022/03/08 04:22:20;;;;;;;10.57;8.13;;;0.90;58.50;;;;;;5009458;28;25066;-74
2022/03/08 04:24:46;;;;;;;10.30;7.78;;;0.90;58.60;;;;;;4997916;28;25062;-74
2022/03/08 04:27:12;;;;;;;11.38;7.63;;;0.80;58.70;;;;;;5012481;28;25052;-73
2022/03/08 04:29:38;;;;;;;11.70;7.85;;;0.80;58.90;;;;;;5011906;28;25103;-74
2022/03/08 04:32:05;;;;;;;14.60;8.50;;;0.80;59.10;;;;;;5009609;28;25111;-73
2022/03/08 04:34:31;;;;;;;12.93;8.30;;;0.80;59.10;;;;;;5009860;28;25132;-74
2022/03/08 04:36:56;;;;;;;12.90;9.00;;;0.80;59.30;;;;;;5009633;28;25111;-74
2022/03/08 04:39:22;;;;;;;12.70;8.27;;;0.70;59.80;;;;;;4992912;28;25138;-73
2022/03/08 04:41:48;;;;;;;12.50;8.85;;;0.70;60.20;;;;;;5011546;28;25142;-72
2022/03/08 04:44:14;;;;;;;14.52;8.02;;;0.80;60.60;;;;;;5009639;28;25112;-72
2022/03/08 04:46:40;;;;;;;16.67;8.63;;;0.70;61.00;;;;;;5009995;28;25075;-73
2022/03/08 04:49:06;;;;;;;13.27;8.85;;;0.80;61.50;;;;;;5010418;28;25105;-74
2022/03/08 04:51:32;;;;;;;13.57;9.40;;;0.80;61.80;;;;;;5011171;28;25064;-73
2022/03/08 04:53:57;;;;;;;12.18;9.35;;;0.80;62.30;;;;;;5010401;28;25087;-73
2022/03/08 04:56:23;;;;;;;14.13;9.10;;;0.70;62.40;;;;;;5008907;28;25136;-73
2022/03/08 04:58:48;;;;;;;12.45;8.60;;;0.70;62.20;;;;;;5005566;28;25155;-72
2022/03/08 05:01:15;;;;;;;13.88;7.97;;;0.70;61.60;;;;;;5003165;28;25112;-73
2022/03/08 05:03:41;;;;;;;13.45;8.68;;;0.70;62.00;;;;;;5006025;28;25058;-73
2022/03/08 05:06:07;;;;;;;10.43;7.95;;;0.70;61.70;;;;;;5007668;28;25170;-72
2022/03/08 05:08:33;;;;;;;12.07;8.63;;;0.70;61.50;;;;;;5006843;28;25099;-73
2022/03/08 05:10:59;;;;;;;11.90;8.57;;;0.70;61.30;;;;;;5006266;28;25127;-74
2022/03/08 05:13:25;;;;;;;14.35;9.00;;;0.70;61.70;;;;;;4996244;28;25069;-72
2022/03/08 05:15:50;;;;;;;12.93;8.23;;;0.70;61.80;;;;;;4996657;28;25074;-73
2022/03/08 05:18:17;;;;;;;13.05;8.95;;;0.70;62.00;;;;;;4998749;28;25235;-73
2022/03/08 05:20:44;;;;;;;13.80;8.60;;;0.70;62.30;;;;;;5004365;28;25152;-72
2022/03/08 05:23:10;;;;;;;12.38;9.52;;;0.70;61.90;;;;;;4999229;28;25067;-72
2022/03/08 05:25:36;;;;;;;11.38;8.13;;;0.70;61.70;;;;;;4998486;28;25064;-73
2022/03/08 05:28:01;;;;;;;15.02;8.98;;;0.70;62.40;;;;;;4996287;28;25065;-74
2022/03/08 05:30:27;;;;;;;11.18;7.97;;;0.60;61.80;;;;;;4999677;28;25076;-72
2022/03/08 05:32:52;;;;;;;11.93;8.57;;;0.60;61.80;;;;;;4991033;28;25098;-72
2022/03/08 05:35:18;;;;;;;13.32;8.40;;;0.60;61.90;;;;;;4998886;28;25087;-72
2022/03/08 05:37:44;;;;;;;11.57;8.25;;;0.60;62.10;;;;;;5010818;28;25051;-71
2022/03/08 05:40:10;;;;;;;11.07;8.18;;;0.60;62.60;;;;;;5009783;28;25053;-74
2022/03/08 05:42:38;;;;;;;11.82;8.85;;;0.60;63.10;;;;;;5024960;28;25057;-73
2022/03/08 05:45:05;;;;;;;12.45;8.75;;;0.60;63.00;;;;;;5025784;28;25070;-73
2022/03/08 05:47:31;;;;;;;11.70;9.15;;;0.60;63.30;;;;;;5007547;28;25133;-73
2022/03/08 05:49:56;;;;;;;13.52;8.10;;;0.60;63.30;;;;;;5028072;28;25057;-73
2022/03/08 05:52:22;;;;;;;13.50;9.23;;;0.60;63.20;;;;;;5026054;28;25080;-74
2022/03/08 05:54:47;;;;;;;12.57;8.80;;;0.60;63.30;;;;;;5023619;28;25056;-71
2022/03/08 05:57:13;;;;;;;11.93;8.38;;;0.60;63.40;;;;;;5015838;28;25144;-71
2022/03/08 05:59:39;;;;;;;13.45;8.35;;;0.60;63.30;;;;;;5014416;28;25100;-72
2022/03/08 06:02:04;;;;;;;14.68;9.18;;;0.60;63.40;;;;;;5005735;28;25090;-74
2022/03/08 06:04:30;;;;;;;13.80;9.18;;;0.60;63.20;;;;;;5012428;28;25111;-73
2022/03/08 06:06:55;;;;;;;13.00;8.55;;;0.60;63.70;;;;;;5011662;28;25069;-74
2022/03/08 06:09:21;;;;;;;14.25;9.48;;;0.60;64.10;;;;;;5011432;28;25154;-73
2022/03/08 06:11:46;;;;;;;12.38;8.60;;;0.60;63.50;;;;;;5011746;28;25070;-71
2022/03/08 06:14:12;;;;;;;12.77;8.95;;;0.60;63.30;;;;;;5011092;28;25047;-72
2022/03/08 06:16:37;;;;;;;13.18;9.02;;;0.60;63.60;;;;;;5009551;28;25094;-74
2022/03/08 06:19:03;;;;;;;14.00;8.70;;;0.60;64.00;;;;;;5004485;28;25073;-73
2022/03/08 06:21:29;;;;;;;13.77;8.90;;;0.60;64.20;;;;;;5011909;28;25144;-75
2022/03/08 06:23:54;;;;;;;14.40;8.70;;;0.60;64.40;;;;;;5004032;28;25152;-73
2022/03/08 06:26:20;;;;;;;11.18;7.93;;;0.60;64.10;;;;;;4983162;28;25116;-73
2022/03/08 06:28:45;;;;;;;13.35;8.65;;;0.60;63.90;;;;;;4995397;28;25125;-75
2022/03/08 06:31:11;;;;;;;15.27;9.05;;;0.60;63.60;;;;;;5004605;28;25069;-74
2022/03/08 06:33:36;;;;;;;11.48;8.80;;;0.60;63.00;;;;;;5009591;28;25109;-73
2022/03/08 06:36:02;;;;;;;14.38;9.15;;;0.70;62.70;;;;;;4995989;28;25095;-74
2022/03/08 06:38:28;;;;;;;14.90;8.77;;;0.70;62.50;;;;;;4994879;28;25170;-72
2022/03/08 06:40:54;;;;;;;13.85;8.50;;;0.70;62.20;;;;;;4997261;28;25070;-76
2022/03/08 06:43:20;;;;;;;15.07;7.85;;;0.70;62.20;;;;;;5004436;28;25069;-72
2022/03/08 06:45:46;;;;;;;11.95;8.57;;;0.70;62.20;;;;;;5011158;28;25069;-74
2022/03/08 06:48:12;;;;;;;11.93;8.13;;;0.70;62.30;;;;;;5006851;28;25079;-73
2022/03/08 06:50:38;;;;;;;12.88;8.80;;;0.80;62.30;;;;;;5013821;28;25058;-72
2022/03/08 06:53:04;;;;;;;13.68;9.40;;;0.80;61.90;;;;;;5016547;28;25128;-73
2022/03/08 06:55:29;;;;;;;13.73;8.07;;;0.90;62.10;;;;;;5031159;28;25078;-75
2022/03/08 06:57:55;;;;;;;15.35;8.95;;;0.90;61.30;;;;;;5032994;28;25062;-76
2022/03/08 07:00:20;;;;;;;13.10;8.48;;;0.90;61.20;;;;;;5027696;28;25072;-73
2022/03/08 07:02:46;;;;;;;15.07;8.55;;;1.00;61.00;;;;;;5015760;28;25071;-73
2022/03/08 07:05:12;;;;;;;15.38;9.32;;;1.00;60.70;;;;;;5010633;28;25044;-72
2022/03/08 07:07:38;;;;;;;16.52;8.95;;;1.00;60.70;;;;;;5005830;28;25070;-74
2022/03/08 07:10:05;;;;;;;13.75;8.75;;;1.10;60.30;;;;;;4999897;28;25068;-74
2022/03/08 07:12:31;;;;;;;12.88;8.02;;;1.20;60.20;;;;;;5002039;28;25076;-73
2022/03/08 07:14:58;;;;;;;14.70;8.73;;;1.20;60.40;;;;;;5001732;28;25060;-73
2022/03/08 07:17:23;;;;;;;14.18;9.43;;;1.30;60.10;;;;;;4986501;28;25046;-72
2022/03/08 07:19:49;;;;;;;13.18;9.05;;;1.30;60.00;;;;;;4998956;28;25163;-73
2022/03/08 07:22:17;;;;;;;13.80;9.52;;;1.30;59.30;;;;;;5002519;28;25110;-74
2022/03/08 07:24:43;;;;;;;12.60;9.13;;;1.40;59.80;;;;;;5002079;28;25144;-73
2022/03/08 07:27:08;;;;;;;10.95;8.25;;;1.40;59.20;;;;;;4998947;28;25086;-72
2022/03/08 07:29:35;;;;;;;11.55;7.93;;;1.50;58.50;;;;;;4995021;28;25149;-74
2022/03/08 07:32:00;;;;;;;14.95;7.95;;;1.60;58.20;;;;;;5002053;28;25061;-75
2022/03/08 07:34:26;;;;;;;16.83;8.48;;;1.60;57.20;;;;;;4997749;28;25028;-74
2022/03/08 07:36:52;;;;;;;12.93;8.32;;;1.70;57.30;;;;;;4999530;28;25152;-73
2022/03/08 07:39:17;;;;;;;10.18;7.38;;;1.70;56.60;;;;;;4999764;28;25080;-75
2022/03/08 07:41:43;;;;;;;9.43;7.70;;;1.80;56.50;;;;;;4997341;28;25055;-73
2022/03/08 07:44:08;;;;;;;12.55;8.32;;;1.80;56.50;;;;;;4988465;28;25155;-74
2022/03/08 07:46:34;;;;;;;11.80;8.07;;;1.80;56.50;;;;;;4998467;28;25085;-74
2022/03/08 07:48:59;;;;;;;9.40;7.80;;;1.90;56.00;;;;;;4999528;28;25074;-74
2022/03/08 07:51:25;;;;;;;9.80;7.53;;;2.00;55.60;;;;;;5002282;28;25147;-73
2022/03/08 07:53:51;;;;;;;14.98;8.00;;;2.10;54.90;;;;;;5004163;28;25075;-74
2022/03/08 07:56:17;;;;;;;11.15;7.80;;;2.20;54.30;;;;;;4998976;28;25061;-73
2022/03/08 07:58:42;;;;;;;12.52;7.20;;;2.30;54.50;;;;;;5002675;28;25128;-76
2022/03/08 08:01:09;;;;;;;12.88;8.48;;;2.40;54.10;;;;;;5008408;28;25101;-77
2022/03/08 08:03:35;;;;;;;11.05;7.85;;;2.50;52.40;;;;;;5005429;28;25103;-74
2022/03/08 08:06:02;;;;;;;13.20;7.65;;;2.60;51.60;;;;;;5003139;28;25099;-73
2022/03/08 08:08:28;;;;;;;11.13;8.07;;;2.70;51.70;;;;;;5002771;28;25054;-74
2022/03/08 08:10:53;;;;;;;10.55;7.85;;;2.70;51.70;;;;;;4991781;28;25079;-73
2022/03/08 08:13:19;;;;;;;10.82;7.28;;;2.80;51.40;;;;;;5000701;28;25060;-74
2022/03/08 08:15:44;;;;;;;14.93;7.25;;;3.00;51.20;;;;;;5007199;28;25055;-74
2022/03/08 08:18:10;;;;;;;9.18;7.20;;;3.10;49.40;;;;;;5002252;28;25140;-74
2022/03/08 08:20:36;;;;;;;12.10;7.10;;;3.20;48.30;;;;;;5000273;28;25085;-73
2022/03/08 08:23:01;;;;;;;15.23;7.63;;;3.40;48.50;;;;;;4998121;28;25076;-72
2022/03/08 08:25:27;;;;;;;12.60;6.63;;;3.50;45.70;;;;;;5004894;28;25078;-72
2022/03/08 08:27:53;;;;;;;9.63;6.60;;;3.60;44.20;;;;;;4999480;28;25055;-72
2022/03/08 08:30:18;;;;;;;10.95;7.75;;;3.80;41.50;;;;;;5014355;28;25081;-73
2022/03/08 08:32:44;;;;;;;10.25;7.38;;;4.00;41.30;;;;;;5025089;28;25074;-72
2022/03/08 08:35:10;;;;;;;8.75;7.22;;;4.10;39.70;;;;;;5024509;28;25068;-73
2022/03/08 08:37:36;;;;;;;11.32;7.43;;;4.10;39.40;;;;;;5020348;28;25070;-73
2022/03/08 08:40:04;;;;;;;9.50;6.88;;;4.30;38.60;;;;;;5012994;28;25071;-73
2022/03/08 08:42:30;;;;;;;14.75;7.25;;;4.30;37.60;;;;;;5009323;28;25082;-73
2022/03/08 08:44:55;;;;;;;9.20;7.03;;;4.40;38.60;;;;;;5009596;28;25072;-74
2022/03/08 08:47:21;;;;;;;11.02;6.90;;;4.60;37.40;;;;;;5008568;28;25131;-71
2022/03/08 08:49:46;;;;;;;9.25;6.78;;;4.60;35.20;;;;;;5008782;28;25149;-76
2022/03/08 08:52:12;;;;;;;9.07;6.55;;;4.70;36.40;;;;;;5013375;28;25150;-76
2022/03/08 08:54:38;;;;;;;8.50;6.78;;;4.80;35.10;;;;;;5012399;28;25153;-74
2022/03/08 08:57:04;;;;;;;10.80;6.82;;;5.00;34.70;;;;;;5011787;28;25109;-72
2022/03/08 08:59:30;;;;;;;9.07;6.60;;;5.00;33.50;;;;;;5010627;28;25068;-71
2022/03/08 09:01:56;;;;;;;10.10;6.80;;;4.90;32.80;;;;;;5010942;28;25132;-74
2022/03/08 09:04:22;;;;;;;9.93;7.40;;;4.90;33.60;;;;;;5011463;28;25075;-75
2022/03/08 09:06:47;;;;;;;9.52;6.32;;;5.10;32.50;;;;;;5008503;28;25061;-74
2022/03/08 09:09:13;;;;;;;10.93;7.10;;;5.40;31.40;;;;;;5010095;28;25061;-74
2022/03/08 09:11:38;;;;;;;10.43;6.50;;;5.40;29.40;;;;;;5011020;28;25154;-74
2022/03/08 09:14:04;;;;;;;7.63;6.20;;;5.50;30.00;;;;;;5011042;28;25128;-73
2022/03/08 09:16:30;;;;;;;8.98;6.20;;;5.60;29.00;;;;;;4987078;28;25151;-73
2022/03/08 09:18:56;;;;;;;11.43;6.32;;;5.60;29.10;;;;;;5008060;28;24790;-71
2022/03/08 09:21:21;;;;;;;8.88;6.53;;;5.80;28.80;;;;;;5010789;28;25078;-71
2022/03/08 09:23:47;;;;;;;8.32;6.38;;;5.80;28.60;;;;;;5000954;28;25067;-73
2022/03/08 09:26:12;;;;;;;13.68;6.10;;;5.80;27.00;;;;;;5009019;28;25054;-72
2022/03/08 09:28:38;;;;;;;14.57;7.05;;;6.00;27.70;;;;;;5004847;28;25111;-72
2022/03/08 09:31:04;;;;;;;10.48;6.35;;;6.00;25.00;;;;;;4993422;28;25154;-74
2022/03/08 09:33:29;;;;;;;7.03;5.82;;;6.00;25.30;;;;;;5012092;28;25055;-73
2022/03/08 09:35:55;;;;;;;8.68;5.50;;;6.30;25.40;;;;;;5010870;28;25058;-73
2022/03/08 09:38:21;;;;;;;9.15;5.80;;;6.30;24.40;;;;;;5004264;28;25056;-75
2022/03/08 09:40:47;;;;;;;11.02;5.93;;;6.50;25.60;;;;;;5033602;28;25058;-73
2022/03/08 09:43:14;;;;;;;8.57;5.55;;;6.80;22.60;;;;;;5030447;28;25058;-74
2022/03/08 09:45:40;;;;;;;8.52;5.28;;;6.70;21.30;;;;;;5020601;28;25077;-75
2022/03/08 09:48:06;;;;;;;9.25;5.40;;;6.90;21.10;;;;;;5018452;28;25065;-72
2022/03/08 09:50:31;;;;;;;7.68;5.68;;;6.80;20.90;;;;;;5010781;28;25070;-73
2022/03/08 09:52:58;;;;;;;11.00;5.60;;;6.70;21.10;;;;;;5014682;28;25160;-74
2022/03/08 09:55:25;;;;;;;10.93;5.85;;;6.90;20.10;;;;;;5015446;28;25051;-72
2022/03/08 09:57:51;;;;;;;9.50;5.15;;;6.80;20.90;;;;;;5012049;28;25051;-76
2022/03/08 10:00:18;;;;;;;8.35;5.55;;;6.70;19.20;;;;;;5014942;28;25059;-73
2022/03/08 10:02:54;;;;;;;13.10;5.68;;;6.70;20.10;;;;;;5000632;28;25079;-74
2022/03/08 10:05:39;;;;;;;8.60;6.32;;;6.90;18.40;;;;;;5001644;28;25059;-75
2022/03/08 10:08:19;;;;;;;16.30;6.15;;;6.90;18.80;;;;;;5011208;28;25100;-75
2022/03/08 10:11:01;;;;;;;8.48;5.80;;;6.90;18.80;;;;;;5013244;28;25177;-76
2022/03/08 10:13:31;;;;;;;10.15;5.65;;;6.80;19.40;;;;;;5011243;28;25065;-72
2022/03/08 10:16:13;;;;;;;12.65;5.32;;;7.10;19.40;;;;;;5005036;28;25074;-74
2022/03/08 10:18:42;;;;;;;6.90;5.10;;;7.20;19.40;;;;;;4993809;28;25144;-75
2022/03/08 10:21:28;;;;;;;11.65;5.55;;;7.60;19.00;;;;;;4987093;28;25055;-75
2022/03/08 10:23:54;;;;;;;10.75;5.25;;;7.50;15.90;;;;;;5004827;28;25071;-72
2022/03/08 10:26:20;;;;;;;10.50;5.45;;;7.20;16.00;;;;;;5012055;28;25174;-74
2022/03/08 10:28:48;;;;;;;9.02;5.53;;;7.20;15.90;;;;;;5016062;28;25104;-72
2022/03/08 10:31:15;;;;;;;11.20;5.47;;;7.30;16.40;;;;;;5015501;28;25079;-75
2022/03/08 10:33:42;;;;;;;7.45;5.30;;;7.50;14.20;;;;;;5013898;28;25083;-74
2022/03/08 10:36:22;;;;;;;10.40;5.47;;;7.60;14.40;;;;;;5013464;28;25052;-71
2022/03/08 10:39:10;;;;;;;15.38;5.82;;;7.50;14.30;;;;;;5010828;28;25065;-72
2022/03/08 10:41:53;;;;;;;9.15;5.72;;;7.60;14.90;;;;;;5004797;28;25067;-73
2022/03/08 10:44:40;;;;;;;7.55;5.43;;;8.00;15.50;;;;;;5002436;28;25084;-74
2022/03/08 10:47:08;;;;;;;10.18;5.70;;;8.10;14.00;;;;;;5000157;28;25147;-70
2022/03/08 10:49:36;;;;;;;10.35;6.40;;;8.00;15.70;;;;;;5012289;28;25068;-72
2022/03/08 10:52:05;;;;;;;11.05;5.72;;;8.10;13.40;;;;;;5013164;28;25056;-74
2022/03/08 10:54:31;;;;;;;10.77;5.82;;;8.30;13.90;;;;;;5012200;28;25058;-72
2022/03/08 10:56:57;;;;;;;8.25;5.15;;;8.20;12.80;;;;;;5011968;28;25074;-73
2022/03/08 10:59:23;;;;;;;6.97;5.47;;;8.30;12.20;;;;;;4994296;28;25073;-72
2022/03/08 11:01:49;;;;;;;6.80;5.30;;;8.40;10.30;;;;;;5010310;28;25100;-72
2022/03/08 11:04:22;;;;;;;8.30;5.22;;;8.60;11.70;;;;;;5002321;28;25103;-76
2022/03/08 11:06:51;;;;;;;11.30;5.00;;;8.60;12.00;;;;;;5006997;28;25051;-73
2022/03/08 11:09:18;;;;;;;7.40;5.25;;;8.90;12.50;;;;;;5007946;28;25146;-74
2022/03/08 11:11:44;;;;;;;17.50;6.03;;;9.10;9.20;;;;;;5006028;28;25069;-75
2022/03/08 11:14:10;;;;;;;9.45;5.22;;;8.90;8.80;;;;;;5006007;28;25062;-72
2022/03/08 11:16:38;;;;;;;8.82;4.82;;;9.00;8.80;;;;;;5008255;28;25072;-71
2022/03/08 11:19:05;;;;;;;8.70;5.53;;;9.10;7.80;;;;;;4990441;28;25180;-76
2022/03/08 11:21:33;;;;;;;6.45;4.88;;;9.10;7.30;;;;;;5009402;28;25168;-72
2022/03/08 11:24:02;;;;;;;10.52;5.07;;;9.30;7.00;;;;;;4996052;28;25086;-72
2022/03/08 11:26:28;;;;;;;9.27;5.25;;;9.40;5.90;;;;;;4990551;28;25063;-74
2022/03/08 11:28:54;;;;;;;6.95;5.43;;;9.40;5.90;;;;;;4990447;28;25083;-75
2022/03/08 11:31:24;;;;;;;8.98;5.05;;;9.50;5.40;;;;;;4990116;28;25096;-76
2022/03/08 11:34:06;;;;;;;7.32;5.32;;;9.70;6.60;;;;;;5008670;28;25124;-72
2022/03/08 11:36:33;;;;;;;8.18;4.97;;;9.80;4.70;;;;;;5008838;28;25083;-74
2022/03/08 11:39:18;;;;;;;7.90;4.97;;;9.70;4.20;;;;;;5009246;28;25068;-74
2022/03/08 11:41:48;;;;;;;8.13;5.32;;;9.80;4.70;;;;;;4992225;28;25073;-74
2022/03/08 11:44:32;;;;;;;6.78;5.00;;;10.10;2.90;;;;;;5010133;28;25067;-74
2022/03/08 11:47:09;;;;;;;9.15;5.10;;;9.70;3.00;;;;;;5010358;28;25077;-74
2022/03/08 11:49:55;;;;;;;5.68;4.80;;;9.90;2.40;;;;;;4996736;28;25079;-73
2022/03/08 11:52:30;;;;;;;7.20;4.82;;;9.90;2.50;;;;;;5011056;28;25068;-74
2022/03/08 11:55:03;;;;;;;7.50;5.00;;;10.00;2.50;;;;;;5014795;28;25081;-75
2022/03/08 11:57:47;;;;;;;6.22;5.28;;;10.30;2.70;;;;;;5014859;28;25078;-73
2022/03/08 12:00:29;;;;;;;6.05;5.20;;;10.40;2.50;;;;;;5010931;28;25070;-73
2022/03/08 12:02:57;;;;;;;9.35;5.32;;;10.40;1.80;;;;;;5012630;28;25145;-76
2022/03/08 12:05:45;;;;;;;12.05;5.53;;;10.60;2.30;;;;;;5012289;28;25084;-73
2022/03/08 12:08:29;;;;;;;10.80;5.18;;;10.80;2.50;;;;;;5012786;28;25147;-73
2022/03/08 12:11:12;;;;;;;7.45;5.43;;;11.00;1.50;;;;;;5011836;28;25068;-74
2022/03/08 12:13:42;;;;;;;7.78;5.30;;;10.80;1.00;;;;;;5010017;28;25156;-72
2022/03/08 12:16:10;;;;;;;7.03;5.25;;;11.10;1.10;;;;;;5011472;28;25073;-74
2022/03/08 12:18:40;;;;;;;8.10;5.15;;;10.70;1.00;;;;;;5015441;28;25101;-73
2022/03/08 12:21:15;;;;;;;10.40;5.30;;;10.70;1.50;;;;;;5020721;28;25059;-74
2022/03/08 12:24:00;;;;;;;7.90;4.82;;;10.90;1.40;;;;;;5022317;28;25083;-74
2022/03/08 12:26:38;;;;;;;7.07;5.20;;;11.40;1.00;;;;;;5033970;28;25058;-74
2022/03/08 12:29:08;;;;;;;6.70;5.30;;;11.50;1.00;;;;;;5010481;28;25074;-75
2022/03/08 12:32:05;;;;;;;6.38;5.20;;;11.30;1.00;;;;;;5004471;28;25064;-74
2022/03/08 12:34:39;;;;;;;6.45;4.88;;;11.30;1.00;;;;;;4996522;28;25082;-74
2022/03/08 12:37:13;;;;;;;10.90;5.85;;;11.30;1.00;;;;;;4997561;28;25158;-74
2022/03/08 12:39:50;;;;;;;7.53;5.40;;;11.50;1.00;;;;;;4995645;28;25126;-73
2022/03/08 12:42:49;;;;;;;5.82;5.22;;;11.90;1.00;;;;;;5000099;28;25101;-74
2022/03/08 12:45:26;;;;;;;6.80;5.25;;;11.40;1.00;;;;;;5003939;28;25118;-73
2022/03/08 12:47:53;;;;;;;7.57;4.90;;;11.60;1.00;;;;;;5001446;28;25077;-73
2022/03/08 12:50:20;;;;;;;9.63;5.20;;;12.00;1.00;;;;;;5002452;28;25063;-75
2022/03/08 12:52:51;;;;;;;7.38;5.00;;;12.60;1.00;;;;;;4998530;28;25093;-73